Time;durP1;ratioP1;P1;durP2;ratioP2;P2;SDS_P1;SDS_P2;PMS_P1;PMS_P2;Temp;Humidity;BMP_temperature;BMP_pressure;BME280_temperature;BME280_humidity;BME280_pressure;Samples;Min_cycle;Max_cycle;Signal;HPM_P1;HPM_P2
2022/12/11 04:02:09;;;;;;;;;;;-0.20;99.90;;;;;;5402500;23;19965;-66
2022/12/11 04:04:36;;;;;;;;;;;-0.20;99.90;;;;;;4968415;28;20376;-67
2022/12/11 04:07:02;;;;;;;;;;;-0.20;99.90;;;;;;4969705;28;19961;-66
2022/12/11 04:09:29;;;;;;;;;;;-0.20;99.90;;;;;;4969739;28;19981;-65
2022/12/11 04:11:56;;;;;;;;;;;-0.20;99.90;;;;;;4958221;28;19937;-66
2022/12/11 04:17:08;;;;;;;;;;;-0.20;99.90;;;;;;4957971;28;19952;-67
2022/12/11 04:25:05;;;;;;;;;;;-0.10;99.90;;;;;;4961220;28;19922;-65
2022/12/11 04:27:50;;;;;;;;;;;-0.10;99.90;;;;;;4958708;28;19934;-65
2022/12/11 04:30:17;;;;;;;;;;;-0.20;99.90;;;;;;4962016;28;19973;-65
2022/12/11 04:32:46;;;;;;;;;;;-0.10;99.90;;;;;;4961346;28;20476;-65
2022/12/11 04:35:13;;;;;;;;;;;-0.10;99.90;;;;;;4961883;28;20360;-66
2022/12/11 04:37:40;;;;;;;;;;;-0.10;99.90;;;;;;4959679;28;19926;-65
2022/12/11 04:40:09;;;;;;;;;;;-0.10;99.90;;;;;;4962769;28;19969;-65
2022/12/11 04:42:35;;;;;;;;;;;-0.10;99.90;;;;;;4963230;28;19926;-65
2022/12/11 04:45:02;;;;;;;;;;;-0.10;99.90;;;;;;4961233;28;19926;-66
2022/12/11 04:47:29;;;;;;;;;;;-0.10;99.90;;;;;;4961350;28;19931;-65
2022/12/11 04:49:57;;;;;;;;;;;-0.10;99.90;;;;;;4954332;28;19927;-65
2022/12/11 04:52:24;;;;;;;;;;;-0.10;99.90;;;;;;4958305;28;19927;-65
2022/12/11 04:54:51;;;;;;;;;;;-0.10;99.90;;;;;;4965296;28;19976;-67
2022/12/11 04:57:19;;;;;;;;;;;-0.10;99.90;;;;;;4964689;28;20029;-65
2022/12/11 04:59:46;;;;;;;;;;;-0.10;99.90;;;;;;4966911;28;20412;-65
2022/12/11 05:02:13;;;;;;;;;;;-0.10;99.90;;;;;;4957294;28;19927;-65
2022/12/11 05:04:40;;;;;;;;;;;-0.10;99.90;;;;;;4960375;28;19931;-65
2022/12/11 05:07:09;;;;;;;;;;;-0.10;99.90;;;;;;4962670;28;19927;-65
2022/12/11 05:09:36;;;;;;;;;;;-0.10;99.90;;;;;;4962063;28;19938;-65
2022/12/11 05:12:02;;;;;;;;;;;0.00;99.90;;;;;;4966437;28;19935;-66
2022/12/11 05:14:30;;;;;;;;;;;0.00;99.90;;;;;;4962035;28;19930;-65
2022/12/11 05:16:57;;;;;;;;;;;0.00;99.90;;;;;;4963994;28;20017;-65
2022/12/11 05:19:24;;;;;;;;;;;0.00;99.90;;;;;;4960594;28;20480;-66
2022/12/11 05:21:51;;;;;;;;;;;0.00;99.90;;;;;;4962178;28;19926;-65
2022/12/11 05:24:19;;;;;;;;;;;0.00;99.90;;;;;;4960889;28;19926;-65
2022/12/11 05:26:46;;;;;;;;;;;0.00;99.90;;;;;;4958332;28;19926;-65
2022/12/11 05:29:12;;;;;;;;;;;0.00;99.90;;;;;;4960730;28;19937;-66
2022/12/11 05:31:39;;;;;;;;;;;0.00;99.90;;;;;;4962999;28;19930;-65
2022/12/11 05:34:06;;;;;;;;;;;0.00;99.90;;;;;;4963836;28;19926;-65
2022/12/11 05:36:33;;;;;;;;;;;0.00;99.90;;;;;;4961645;28;19926;-65
2022/12/11 05:39:00;;;;;;;;;;;0.00;99.90;;;;;;4961240;28;19980;-65
2022/12/11 05:41:29;;;;;;;;;;;0.00;99.90;;;;;;4957283;28;19926;-65
2022/12/11 05:43:56;;;;;;;;;;;0.00;99.90;;;;;;4962695;28;19926;-66
2022/12/11 05:46:23;;;;;;;;;;;0.00;99.90;;;;;;4961294;28;19930;-65
2022/12/11 05:48:51;;;;;;;;;;;0.00;99.90;;;;;;4959368;28;20021;-65
2022/12/11 05:51:18;;;;;;;;;;;0.00;99.90;;;;;;4961173;28;19965;-66
2022/12/11 05:53:45;;;;;;;;;;;0.00;99.90;;;;;;4963228;28;19980;-66
2022/12/11 05:56:13;;;;;;;;;;;0.00;99.90;;;;;;4961027;28;19926;-65
2022/12/11 05:58:42;;;;;;;;;;;0.00;99.90;;;;;;4954364;28;20357;-72
2022/12/11 06:01:09;;;;;;;;;;;0.00;99.90;;;;;;4960126;28;19935;-64
2022/12/11 06:03:36;;;;;;;;;;;0.00;99.90;;;;;;4951117;28;19932;-66
2022/12/11 06:06:03;;;;;;;;;;;0.00;99.90;;;;;;4954388;28;20021;-65
2022/12/11 06:08:30;;;;;;;;;;;0.00;99.90;;;;;;4959852;28;19997;-65
2022/12/11 06:10:56;;;;;;;;;;;0.00;99.90;;;;;;4955123;28;19958;-66
2022/12/11 06:13:23;;;;;;;;;;;0.00;99.90;;;;;;4959800;28;20457;-66
2022/12/11 06:15:51;;;;;;;;;;;0.00;99.90;;;;;;4965804;28;20013;-65
2022/12/11 06:18:18;;;;;;;;;;;0.00;99.90;;;;;;4956918;28;19961;-65
2022/12/11 06:20:45;;;;;;;;;;;-0.10;99.90;;;;;;4958123;28;20037;-65
2022/12/11 06:23:11;;;;;;;;;;;-0.10;99.90;;;;;;4959477;28;20257;-66
2022/12/11 06:25:38;;;;;;;;;;;0.00;99.90;;;;;;4964656;28;19926;-66
2022/12/11 06:28:05;;;;;;;;;;;0.00;99.90;;;;;;4967124;28;20392;-65
2022/12/11 06:30:31;;;;;;;;;;;0.00;99.90;;;;;;4964218;28;19958;-65
2022/12/11 06:33:00;;;;;;;;;;;-0.10;99.90;;;;;;4959930;28;19989;-65
2022/12/11 06:35:26;;;;;;;;;;;-0.10;99.90;;;;;;4963506;28;19933;-64
2022/12/11 06:37:53;;;;;;;;;;;-0.10;99.90;;;;;;4958984;28;19934;-65
2022/12/11 06:40:20;;;;;;;;;;;-0.10;99.90;;;;;;4966612;28;19930;-64
2022/12/11 06:42:47;;;;;;;;;;;-0.10;99.90;;;;;;4955449;28;19934;-63
2022/12/11 06:45:13;;;;;;;;;;;-0.10;99.90;;;;;;4962177;28;19926;-65
2022/12/11 06:47:40;;;;;;;;;;;-0.10;99.90;;;;;;4956045;28;19930;-65
2022/12/11 06:50:09;;;;;;;;;;;-0.10;99.90;;;;;;4956152;28;19934;-66
2022/12/11 06:52:36;;;;;;;;;;;-0.10;99.90;;;;;;4954475;28;19926;-64
2022/12/11 06:55:03;;;;;;;;;;;-0.10;99.90;;;;;;4957035;28;19926;-64
2022/12/11 06:57:29;;;;;;;;;;;-0.10;99.90;;;;;;4951586;28;20464;-65
2022/12/11 06:59:56;;;;;;;;;;;-0.10;99.90;;;;;;4964963;28;19926;-65
2022/12/11 07:02:23;;;;;;;;;;;-0.10;99.90;;;;;;4967395;28;19930;-63
2022/12/11 07:04:49;;;;;;;;;;;-0.20;99.90;;;;;;4956778;28;19985;-66
2022/12/11 07:07:18;;;;;;;;;;;-0.20;99.90;;;;;;4959103;28;19926;-66
2022/12/11 07:09:45;;;;;;;;;;;-0.20;99.90;;;;;;4955140;28;19927;-65
2022/12/11 07:12:12;;;;;;;;;;;-0.20;99.90;;;;;;4957756;28;19930;-66
2022/12/11 07:14:38;;;;;;;;;;;-0.20;99.90;;;;;;4955813;28;19926;-65
2022/12/11 07:17:05;;;;;;;;;;;-0.20;99.90;;;;;;4962080;28;19934;-65
2022/12/11 07:19:32;;;;;;;;;;;-0.20;99.90;;;;;;4954623;28;19942;-65
2022/12/11 07:21:59;;;;;;;;;;;-0.30;99.90;;;;;;4959640;28;19926;-65
2022/12/11 07:24:27;;;;;;;;;;;-0.30;99.90;;;;;;4958972;28;19930;-65
2022/12/11 07:26:54;;;;;;;;;;;-0.20;99.90;;;;;;4960799;28;20416;-65
2022/12/11 07:29:21;;;;;;;;;;;-0.30;99.90;;;;;;4951426;28;19926;-65
2022/12/11 07:31:47;;;;;;;;;;;-0.30;99.90;;;;;;4969654;28;19938;-64
2022/12/11 07:34:14;;;;;;;;;;;-0.40;99.90;;;;;;4957529;28;19927;-66
2022/12/11 07:36:42;;;;;;;;;;;-0.40;99.90;;;;;;4959524;28;20104;-67
2022/12/11 07:39:10;;;;;;;;;;;-0.40;99.90;;;;;;4956877;28;20308;-65
2022/12/11 07:41:38;;;;;;;;;;;-0.40;99.90;;;;;;4962383;28;19926;-65
2022/12/11 07:44:10;;;;;;;;;;;-0.40;99.90;;;;;;4959301;28;20043;-64
2022/12/11 07:46:37;;;;;;;;;;;-0.40;99.90;;;;;;4957145;28;19926;-65
2022/12/11 07:49:04;;;;;;;;;;;-0.40;99.90;;;;;;4960334;28;19927;-65
2022/12/11 07:51:32;;;;;;;;;;;-0.40;99.90;;;;;;4959703;28;19927;-65
2022/12/11 07:54:00;;;;;;;;;;;-0.30;99.90;;;;;;4961879;28;20294;-65
2022/12/11 07:56:27;;;;;;;;;;;-0.30;99.90;;;;;;4960470;28;19993;-66
2022/12/11 07:58:56;;;;;;;;;;;-0.30;99.90;;;;;;4958858;28;19926;-65
2022/12/11 08:01:24;;;;;;;;;;;-0.30;99.90;;;;;;4955537;28;19973;-63
2022/12/11 08:03:52;;;;;;;;;;;-0.20;99.90;;;;;;4951389;29;20402;-65
2022/12/11 08:06:20;;;;;;;;;;;-0.20;99.90;;;;;;4955517;28;19981;-66
2022/12/11 08:08:47;;;;;;;;;;;-0.20;99.90;;;;;;4962178;28;19937;-67
2022/12/11 08:11:14;;;;;;;;;;;-0.20;99.90;;;;;;4962524;28;19926;-65
2022/12/11 08:13:41;;;;;;;;;;;-0.30;99.90;;;;;;4959922;28;19926;-65
2022/12/11 08:16:11;;;;;;;;;;;-0.20;99.90;;;;;;4962954;28;19927;-65
2022/12/11 08:18:39;;;;;;;;;;;-0.30;99.90;;;;;;4965204;28;19932;-65
2022/12/11 08:21:06;;;;;;;;;;;-0.30;99.90;;;;;;4960895;28;19927;-65
2022/12/11 08:23:33;;;;;;;;;;;-0.30;99.90;;;;;;4967292;28;19933;-65
2022/12/11 08:26:01;;;;;;;;;;;-0.20;99.90;;;;;;4961549;28;19934;-65
2022/12/11 08:28:28;;;;;;;;;;;-0.20;99.90;;;;;;4961531;28;20051;-65
2022/12/11 08:30:55;;;;;;;;;;;-0.10;99.90;;;;;;4964911;28;19930;-66
2022/12/11 08:33:23;;;;;;;;;;;-0.10;99.90;;;;;;4958424;28;19931;-66
2022/12/11 08:35:50;;;;;;;;;;;-0.10;99.90;;;;;;4966577;28;19926;-65
2022/12/11 08:38:17;;;;;;;;;;;-0.10;99.90;;;;;;4959952;28;20045;-63
2022/12/11 08:40:43;;;;;;;;;;;-0.10;99.90;;;;;;4966465;28;20349;-65
2022/12/11 08:43:10;;;;;;;;;;;-0.10;99.90;;;;;;4961931;28;19926;-66
2022/12/11 08:45:37;;;;;;;;;;;-0.10;99.90;;;;;;4966734;28;19930;-65
2022/12/11 08:48:04;;;;;;;;;;;-0.10;99.90;;;;;;4963941;28;19926;-67
2022/12/11 08:50:32;;;;;;;;;;;-0.10;99.90;;;;;;4961354;28;20325;-65
2022/12/11 08:52:59;;;;;;;;;;;-0.10;99.90;;;;;;4965122;28;19951;-65
2022/12/11 08:55:26;;;;;;;;;;;0.00;99.90;;;;;;4961821;28;20448;-65
2022/12/11 08:57:53;;;;;;;;;;;-0.10;99.90;;;;;;4957986;28;19930;-66
2022/12/11 09:00:19;;;;;;;;;;;0.00;99.90;;;;;;4958940;28;19926;-76
2022/12/11 09:02:47;;;;;;;;;;;0.00;99.90;;;;;;4960917;28;20403;-65
2022/12/11 09:05:14;;;;;;;;;;;-0.10;99.90;;;;;;4964576;28;19985;-66
2022/12/11 09:07:42;;;;;;;;;;;-0.10;99.90;;;;;;4962052;28;20345;-66
2022/12/11 09:10:10;;;;;;;;;;;-0.10;99.90;;;;;;4960207;28;19933;-65
2022/12/11 09:12:37;;;;;;;;;;;0.00;99.90;;;;;;4956809;28;19930;-66
2022/12/11 09:15:04;;;;;;;;;;;0.00;99.90;;;;;;4963351;28;19927;-67
2022/12/11 09:17:31;;;;;;;;;;;0.00;99.90;;;;;;4961678;28;19926;-66
2022/12/11 09:19:57;;;;;;;;;;;0.00;99.90;;;;;;4962652;28;19934;-65
2022/12/11 09:22:24;;;;;;;;;;;-0.10;99.90;;;;;;4959133;28;20296;-67
2022/12/11 09:24:52;;;;;;;;;;;-0.10;99.90;;;;;;4960596;28;19946;-65
2022/12/11 09:27:20;;;;;;;;;;;0.00;99.90;;;;;;4963332;28;19933;-66
2022/12/11 09:29:46;;;;;;;;;;;0.00;99.90;;;;;;4962214;28;19926;-65
2022/12/11 09:32:13;;;;;;;;;;;0.10;99.90;;;;;;4961040;28;20460;-65
2022/12/11 09:34:40;;;;;;;;;;;0.20;99.90;;;;;;4961348;28;19926;-65
2022/12/11 09:37:07;;;;;;;;;;;0.30;99.90;;;;;;4961604;28;19926;-65
2022/12/11 09:39:34;;;;;;;;;;;0.30;99.90;;;;;;4955188;28;19933;-65
2022/12/11 09:42:06;;;;;;;;;;;0.40;99.90;;;;;;4962580;28;19926;-66
2022/12/11 09:44:35;;;;;;;;;;;0.40;99.90;;;;;;4965563;28;19930;-66
2022/12/11 09:47:02;;;;;;;;;;;0.50;99.90;;;;;;4961612;28;19926;-66
2022/12/11 09:49:32;;;;;;;;;;;0.50;99.90;;;;;;4959958;28;19926;-65
2022/12/11 09:52:04;;;;;;;;;;;0.50;99.90;;;;;;4960784;28;19934;-66
2022/12/11 09:54:31;;;;;;;;;;;0.50;99.90;;;;;;4957210;28;19927;-65
2022/12/11 09:57:02;;;;;;;;;;;0.50;99.90;;;;;;4964526;28;19930;-66
2022/12/11 09:59:36;;;;;;;;;;;0.50;99.90;;;;;;4953001;28;19930;-66
2022/12/11 10:02:10;;;;;;;;;;;0.50;99.90;;;;;;4957845;28;20390;-65
2022/12/11 10:04:42;;;;;;;;;;;0.50;99.90;;;;;;4956404;28;19927;-66
2022/12/11 10:07:12;;;;;;;;;;;0.50;99.90;;;;;;4961670;28;19927;-66
2022/12/11 10:09:43;;;;;;;;;;;0.60;99.90;;;;;;4962041;28;20034;-66
2022/12/11 10:12:16;;;;;;;;;;;0.60;99.90;;;;;;4962369;28;20393;-66
2022/12/11 10:14:52;;;;;;;;;;;0.50;99.90;;;;;;4953661;28;19930;-65
2022/12/11 10:17:20;;;;;;;;;;;0.50;99.90;;;;;;4958513;28;20353;-65
2022/12/11 10:19:48;;;;;;;;;;;0.60;99.90;;;;;;4962153;28;19926;-65
2022/12/11 10:22:18;;;;;;;;;;;0.50;99.90;;;;;;4963429;28;19934;-65
2022/12/11 10:24:49;;;;;;;;;;;0.50;99.90;;;;;;4962373;28;19962;-65
2022/12/11 10:27:18;;;;;;;;;;;0.50;99.90;;;;;;4958166;28;19926;-65
2022/12/11 10:29:47;;;;;;;;;;;0.50;99.90;;;;;;4957633;28;19934;-65
2022/12/11 10:32:19;;;;;;;;;;;0.50;99.90;;;;;;4963116;28;19926;-65
2022/12/11 10:34:46;;;;;;;;;;;0.60;99.90;;;;;;4963590;28;19927;-65
2022/12/11 10:37:14;;;;;;;;;;;0.70;99.90;;;;;;4960247;28;19934;-65
2022/12/11 10:39:41;;;;;;;;;;;0.70;99.90;;;;;;4961490;28;19933;-66
2022/12/11 10:42:14;;;;;;;;;;;0.90;99.90;;;;;;4956686;28;19949;-66
2022/12/11 10:44:41;;;;;;;;;;;1.10;99.90;;;;;;4960083;28;19927;-65
2022/12/11 10:47:12;;;;;;;;;;;1.20;99.90;;;;;;4961871;28;19926;-66
2022/12/11 10:49:42;;;;;;;;;;;1.30;99.90;;;;;;4962272;28;20447;-65
2022/12/11 10:52:10;;;;;;;;;;;1.40;99.90;;;;;;4968209;28;19934;-66
2022/12/11 10:54:38;;;;;;;;;;;1.30;99.90;;;;;;4960664;28;19926;-66
2022/12/11 10:57:06;;;;;;;;;;;1.30;99.90;;;;;;4959345;28;19934;-66
2022/12/11 10:59:35;;;;;;;;;;;1.40;99.90;;;;;;4958695;28;19927;-66
2022/12/11 11:02:03;;;;;;;;;;;1.40;99.90;;;;;;4958285;28;19926;-65
2022/12/11 11:04:33;;;;;;;;;;;1.50;99.90;;;;;;4965427;28;19933;-66
2022/12/11 11:07:04;;;;;;;;;;;1.50;99.90;;;;;;4960967;28;19961;-66
2022/12/11 11:09:33;;;;;;;;;;;1.70;99.90;;;;;;4960455;28;19926;-66
2022/12/11 11:12:00;;;;;;;;;;;1.90;99.90;;;;;;4963162;28;20274;-65
2022/12/11 11:14:27;;;;;;;;;;;2.10;99.90;;;;;;4960062;28;20345;-66
2022/12/11 11:16:55;;;;;;;;;;;2.10;99.90;;;;;;4966585;28;19937;-65
2022/12/11 11:19:24;;;;;;;;;;;2.00;99.90;;;;;;4969683;28;19971;-65
2022/12/11 11:21:55;;;;;;;;;;;1.80;99.90;;;;;;4963876;28;19927;-65
2022/12/11 11:24:24;;;;;;;;;;;1.90;99.90;;;;;;4956587;28;19933;-65
2022/12/11 11:26:51;;;;;;;;;;;2.20;99.90;;;;;;4961678;28;19931;-66
2022/12/11 11:29:23;;;;;;;;;;;2.40;99.90;;;;;;4952505;28;19926;-65
2022/12/11 11:31:50;;;;;;;;;;;2.60;99.90;;;;;;4963677;28;19926;-66
2022/12/11 11:34:19;;;;;;;;;;;3.00;99.90;;;;;;4957436;28;19931;-66
2022/12/11 11:36:55;;;;;;;;;;;3.30;99.90;;;;;;4957458;28;20013;-65
2022/12/11 11:39:27;;;;;;;;;;;3.90;99.90;;;;;;4957600;28;19927;-65
2022/12/11 11:41:57;;;;;;;;;;;4.80;99.90;;;;;;4964992;28;19934;-65
2022/12/11 11:44:28;;;;;;;;;;;6.20;99.90;;;;;;4969325;28;19939;-65
2022/12/11 11:46:57;;;;;;;;;;;6.60;99.90;;;;;;4965678;28;19934;-66
2022/12/11 11:49:26;;;;;;;;;;;6.00;99.90;;;;;;4956094;28;19938;-65
2022/12/11 11:51:56;;;;;;;;;;;5.90;99.90;;;;;;4967207;28;19926;-66
2022/12/11 11:54:31;;;;;;;;;;;6.90;99.90;;;;;;4958908;28;19934;-66
2022/12/11 11:56:58;;;;;;;;;;;9.10;99.90;;;;;;4962936;28;19926;-65
2022/12/11 11:59:28;;;;;;;;;;;10.40;99.90;;;;;;4964314;28;19926;-66
2022/12/11 12:01:56;;;;;;;;;;;8.80;99.90;;;;;;4958163;28;20428;-65
2022/12/11 12:04:22;;;;;;;;;;;6.60;99.90;;;;;;4967980;28;19926;-66
2022/12/11 12:07:04;;;;;;;;;;;6.10;99.90;;;;;;4967324;28;19998;-66
2022/12/11 12:09:39;;;;;;;;;;;7.10;99.90;;;;;;4961254;28;19927;-66
2022/12/11 12:12:10;;;;;;;;;;;8.70;99.90;;;;;;4966108;28;20317;-64
2022/12/11 12:14:43;;;;;;;;;;;10.10;99.90;;;;;;4960670;28;19931;-66
2022/12/11 12:17:16;;;;;;;;;;;10.90;99.90;;;;;;4966066;28;19926;-66
2022/12/11 12:19:46;;;;;;;;;;;11.80;99.90;;;;;;4963039;28;19927;-66
2022/12/11 12:22:30;;;;;;;;;;;13.10;99.90;;;;;;4957023;28;19948;-64
2022/12/11 12:25:02;;;;;;;;;;;13.20;99.90;;;;;;4956124;28;19926;-64
2022/12/11 12:27:32;;;;;;;;;;;12.80;99.90;;;;;;4958204;28;19930;-64
2022/12/11 12:30:02;;;;;;;;;;;13.40;99.90;;;;;;4961927;28;19927;-64
2022/12/11 12:32:32;;;;;;;;;;;13.60;99.90;;;;;;4962641;28;19937;-64
2022/12/11 12:35:04;;;;;;;;;;;13.40;99.90;;;;;;4959455;28;20385;-64
2022/12/11 12:37:38;;;;;;;;;;;14.20;99.90;;;;;;4966003;28;19961;-64
2022/12/11 12:40:13;;;;;;;;;;;14.30;99.90;;;;;;4962226;28;19933;-63
2022/12/11 12:42:48;;;;;;;;;;;15.30;99.90;;;;;;4962770;28;20301;-64
2022/12/11 12:45:18;;;;;;;;;;;14.60;99.90;;;;;;4961989;28;19930;-64
2022/12/11 12:47:46;;;;;;;;;;;12.60;99.90;;;;;;4957409;28;19938;-60
2022/12/11 12:50:16;;;;;;;;;;;10.70;99.90;;;;;;4960754;28;19933;-64
2022/12/11 12:52:43;;;;;;;;;;;10.40;99.90;;;;;;4955321;28;19927;-64
2022/12/11 12:55:21;;;;;;;;;;;9.80;99.90;;;;;;4958789;28;19934;-64
2022/12/11 12:57:50;;;;;;;;;;;9.40;99.90;;;;;;4963053;28;19957;-64
2022/12/11 13:00:26;;;;;;;;;;;8.80;99.90;;;;;;4962533;28;19929;-64
2022/12/11 13:02:54;;;;;;;;;;;7.80;99.90;;;;;;4960844;28;20447;-65
2022/12/11 13:05:23;;;;;;;;;;;6.90;99.90;;;;;;4959228;28;20282;-64
2022/12/11 13:07:52;;;;;;;;;;;6.20;99.90;;;;;;4962962;28;19935;-63
2022/12/11 13:10:26;;;;;;;;;;;5.80;99.90;;;;;;4955880;28;19978;-63
2022/12/11 13:12:52;;;;;;;;;;;5.50;99.90;;;;;;4964885;28;19957;-63
2022/12/11 13:15:37;;;;;;;;;;;5.30;99.90;;;;;;4963200;28;19926;-64
2022/12/11 13:18:07;;;;;;;;;;;5.10;99.90;;;;;;4961418;28;19926;-64
2022/12/11 13:20:34;;;;;;;;;;;4.80;99.90;;;;;;4960066;28;19926;-64
2022/12/11 13:23:26;;;;;;;;;;;4.60;99.90;;;;;;4962378;28;19937;-64
2022/12/11 13:25:56;;;;;;;;;;;4.50;99.90;;;;;;4963681;28;19958;-64
2022/12/11 13:28:27;;;;;;;;;;;4.40;99.90;;;;;;4965823;28;19930;-64
2022/12/11 13:30:59;;;;;;;;;;;4.20;99.90;;;;;;4961658;28;19965;-64
2022/12/11 13:33:25;;;;;;;;;;;4.20;99.90;;;;;;4962676;28;19930;-63
2022/12/11 13:36:07;;;;;;;;;;;4.00;99.90;;;;;;4962358;28;19926;-66
2022/12/11 13:38:34;;;;;;;;;;;3.90;99.90;;;;;;4967976;28;19935;-65
2022/12/11 13:41:04;;;;;;;;;;;3.70;99.90;;;;;;4968904;28;20059;-66
2022/12/11 13:43:33;;;;;;;;;;;3.60;99.90;;;;;;4965513;28;19926;-66
2022/12/11 13:46:00;;;;;;;;;;;3.60;99.90;;;;;;4965605;28;19930;-66
2022/12/11 13:48:28;;;;;;;;;;;3.50;99.90;;;;;;4957957;28;20001;-66
2022/12/11 13:50:56;;;;;;;;;;;3.40;99.90;;;;;;4969457;28;19926;-66
2022/12/11 13:53:23;;;;;;;;;;;3.30;99.90;;;;;;4966000;28;19926;-65
2022/12/11 13:55:57;;;;;;;;;;;3.10;99.90;;;;;;4963209;28;20491;-66
2022/12/11 13:58:25;;;;;;;;;;;3.00;99.90;;;;;;4963833;28;20397;-66
2022/12/11 14:01:04;;;;;;;;;;;3.00;99.90;;;;;;4961772;28;19934;-66
2022/12/11 14:03:31;;;;;;;;;;;3.00;99.90;;;;;;4961462;28;19926;-66
2022/12/11 14:05:58;;;;;;;;;;;2.80;99.90;;;;;;4958145;28;19930;-66
2022/12/11 14:08:29;;;;;;;;;;;2.80;99.90;;;;;;4966301;28;19926;-66
2022/12/11 14:10:56;;;;;;;;;;;2.80;99.90;;;;;;4959185;28;19926;-66
2022/12/11 14:13:26;;;;;;;;;;;2.80;99.90;;;;;;4965319;28;20488;-66
2022/12/11 14:15:53;;;;;;;;;;;2.70;99.90;;;;;;4963613;28;20448;-66
2022/12/11 14:18:21;;;;;;;;;;;2.60;99.90;;;;;;4969622;28;19985;-64
2022/12/11 14:20:53;;;;;;;;;;;2.50;99.90;;;;;;4963134;28;20369;-66
2022/12/11 14:23:21;;;;;;;;;;;2.50;99.90;;;;;;4960065;28;19926;-66
2022/12/11 14:25:51;;;;;;;;;;;2.60;99.90;;;;;;4967602;28;20344;-73
2022/12/11 14:28:18;;;;;;;;;;;2.50;99.90;;;;;;4964667;28;19953;-72
2022/12/11 14:30:50;;;;;;;;;;;2.50;99.90;;;;;;4956972;28;19930;-67
2022/12/11 14:33:17;;;;;;;;;;;2.30;99.90;;;;;;4956675;28;20025;-66
2022/12/11 14:35:45;;;;;;;;;;;2.30;99.90;;;;;;4960162;28;19990;-66
2022/12/11 14:38:16;;;;;;;;;;;2.30;99.90;;;;;;4964234;28;19927;-64
2022/12/11 14:40:45;;;;;;;;;;;2.30;99.90;;;;;;4965553;28;20025;-66
2022/12/11 14:43:14;;;;;;;;;;;2.20;99.90;;;;;;4967574;28;19926;-66
2022/12/11 14:45:42;;;;;;;;;;;2.20;99.90;;;;;;4963197;28;19933;-66
2022/12/11 14:48:16;;;;;;;;;;;2.10;99.90;;;;;;4964511;28;19937;-66
2022/12/11 14:50:46;;;;;;;;;;;2.00;99.90;;;;;;4962345;28;19926;-70
2022/12/11 14:53:15;;;;;;;;;;;2.00;99.90;;;;;;4964816;28;20010;-69
2022/12/11 14:55:42;;;;;;;;;;;1.90;99.90;;;;;;4965326;28;19933;-66
2022/12/11 14:58:14;;;;;;;;;;;1.90;99.90;;;;;;4967618;28;19930;-67
2022/12/11 15:00:41;;;;;;;;;;;2.00;99.90;;;;;;4952476;28;19989;-65
2022/12/11 15:03:21;;;;;;;;;;;2.00;99.90;;;;;;4959016;28;19926;-71
2022/12/11 15:05:51;;;;;;;;;;;2.00;99.90;;;;;;4966937;28;19979;-70
2022/12/11 15:08:23;;;;;;;;;;;2.00;99.90;;;;;;4959097;28;19930;-71
2022/12/11 15:10:59;;;;;;;;;;;2.00;99.90;;;;;;4963053;28;19926;-63
2022/12/11 15:13:26;;;;;;;;;;;1.90;99.90;;;;;;4958510;28;19926;-67
2022/12/11 15:15:54;;;;;;;;;;;1.90;99.90;;;;;;4964788;28;19976;-69
2022/12/11 15:18:23;;;;;;;;;;;1.90;99.90;;;;;;4961707;28;19933;-66
2022/12/11 15:20:53;;;;;;;;;;;1.80;99.90;;;;;;4960926;28;19926;-66
2022/12/11 15:23:19;;;;;;;;;;;1.80;99.90;;;;;;4968874;28;19934;-66
2022/12/11 15:25:50;;;;;;;;;;;1.70;99.90;;;;;;4966193;28;19926;-67
2022/12/11 15:28:25;;;;;;;;;;;1.70;99.90;;;;;;4961072;28;19930;-64
2022/12/11 15:30:55;;;;;;;;;;;1.70;99.90;;;;;;4962359;28;19981;-67
2022/12/11 15:33:22;;;;;;;;;;;1.70;99.90;;;;;;4952802;29;19950;-66
2022/12/11 15:35:55;;;;;;;;;;;1.60;99.90;;;;;;4951839;28;19931;-67
2022/12/11 15:38:27;;;;;;;;;;;1.50;99.90;;;;;;4956652;28;19934;-65
2022/12/11 15:40:53;;;;;;;;;;;1.50;99.90;;;;;;4957741;28;19926;-66
2022/12/11 15:43:20;;;;;;;;;;;1.50;99.90;;;;;;4954668;28;19926;-66
2022/12/11 15:45:47;;;;;;;;;;;1.60;99.90;;;;;;4952507;29;19927;-65
2022/12/11 15:48:14;;;;;;;;;;;1.60;99.90;;;;;;4956446;28;19926;-66
2022/12/11 15:50:41;;;;;;;;;;;1.60;99.90;;;;;;4958152;28;20024;-64
2022/12/11 15:53:09;;;;;;;;;;;1.70;99.90;;;;;;4958488;28;19926;-65
2022/12/11 15:55:36;;;;;;;;;;;1.60;99.90;;;;;;4964947;28;19988;-66
2022/12/11 15:58:05;;;;;;;;;;;1.50;99.90;;;;;;4961603;28;19927;-66
2022/12/11 16:00:32;;;;;;;;;;;1.40;99.90;;;;;;4964673;28;19926;-65
2022/12/11 16:02:59;;;;;;;;;;;1.40;99.90;;;;;;4959902;28;19934;-66
2022/12/11 16:05:26;;;;;;;;;;;1.30;99.90;;;;;;4962506;28;19926;-66
2022/12/11 16:07:53;;;;;;;;;;;1.30;99.90;;;;;;4959728;28;19984;-66
2022/12/11 16:10:21;;;;;;;;;;;1.20;99.90;;;;;;4960216;28;19927;-66
2022/12/11 16:12:48;;;;;;;;;;;1.10;99.90;;;;;;4963879;28;20346;-66
2022/12/11 16:15:15;;;;;;;;;;;1.00;99.90;;;;;;4963960;28;19993;-66
2022/12/11 16:17:42;;;;;;;;;;;1.00;99.90;;;;;;4967782;28;19973;-66
2022/12/11 16:20:09;;;;;;;;;;;0.90;99.90;;;;;;4959608;28;19930;-66
2022/12/11 16:22:36;;;;;;;;;;;0.80;99.90;;;;;;4953567;28;19927;-66
2022/12/11 16:25:03;;;;;;;;;;;0.70;99.90;;;;;;4956199;28;19934;-66
2022/12/11 16:27:32;;;;;;;;;;;0.60;99.90;;;;;;4959401;28;19933;-65
2022/12/11 16:29:59;;;;;;;;;;;0.40;99.90;;;;;;4961845;28;19941;-65
2022/12/11 16:32:26;;;;;;;;;;;0.30;99.90;;;;;;4963811;28;19931;-65
2022/12/11 16:34:53;;;;;;;;;;;0.20;99.90;;;;;;4965474;28;19926;-66
2022/12/11 16:37:21;;;;;;;;;;;0.20;99.90;;;;;;4960436;28;19942;-66
2022/12/11 16:39:47;;;;;;;;;;;0.20;99.90;;;;;;4962203;28;19926;-66
2022/12/11 16:42:14;;;;;;;;;;;0.10;99.90;;;;;;4964151;28;19926;-66
2022/12/11 16:44:42;;;;;;;;;;;0.10;99.90;;;;;;4963254;28;19974;-66
2022/12/11 16:47:09;;;;;;;;;;;0.00;99.90;;;;;;4958395;28;20401;-66
2022/12/11 16:49:36;;;;;;;;;;;-0.10;99.90;;;;;;4962566;28;19986;-66
2022/12/11 16:52:03;;;;;;;;;;;-0.10;99.90;;;;;;4968914;28;19930;-66
2022/12/11 16:54:29;;;;;;;;;;;-0.20;99.90;;;;;;4962864;28;19930;-67
2022/12/11 16:56:56;;;;;;;;;;;-0.30;99.90;;;;;;4958169;28;20309;-66
2022/12/11 16:59:23;;;;;;;;;;;-0.30;99.90;;;;;;4962188;28;19926;-66
2022/12/11 17:01:51;;;;;;;;;;;-0.40;99.90;;;;;;4959814;28;19931;-66
2022/12/11 17:04:18;;;;;;;;;;;-0.40;99.90;;;;;;4962770;28;19926;-66
2022/12/11 17:06:45;;;;;;;;;;;-0.40;99.90;;;;;;4963002;28;19931;-66
2022/12/11 17:09:12;;;;;;;;;;;-0.20;99.90;;;;;;4962650;28;20360;-66
2022/12/11 17:11:39;;;;;;;;;;;-0.20;99.90;;;;;;4960794;28;19926;-66
2022/12/11 17:14:05;;;;;;;;;;;-0.20;99.90;;;;;;4956132;28;19933;-66
2022/12/11 17:16:32;;;;;;;;;;;-0.20;99.90;;;;;;4962819;28;19927;-66
2022/12/11 17:19:02;;;;;;;;;;;-0.20;99.90;;;;;;4962028;28;19926;-66
2022/12/11 17:21:29;;;;;;;;;;;-0.10;99.90;;;;;;4963081;28;19926;-66
2022/12/11 17:23:55;;;;;;;;;;;-0.10;99.90;;;;;;4964158;28;19931;-67
2022/12/11 17:26:24;;;;;;;;;;;0.00;99.90;;;;;;4966269;28;19933;-68
2022/12/11 17:28:50;;;;;;;;;;;0.00;99.90;;;;;;4966954;28;19970;-67
2022/12/11 17:31:19;;;;;;;;;;;0.10;99.90;;;;;;4959946;28;20016;-67
2022/12/11 17:33:46;;;;;;;;;;;0.20;99.90;;;;;;4959571;28;19934;-67
2022/12/11 17:36:15;;;;;;;;;;;0.20;99.90;;;;;;4961283;28;20401;-68
2022/12/11 17:38:42;;;;;;;;;;;0.20;99.90;;;;;;4956679;28;19947;-68
2022/12/11 17:41:10;;;;;;;;;;;0.30;99.90;;;;;;4966168;28;19933;-67
2022/12/11 17:43:37;;;;;;;;;;;0.30;99.90;;;;;;4956780;28;19930;-67
2022/12/11 17:46:04;;;;;;;;;;;0.30;99.90;;;;;;4965649;28;19933;-68
2022/12/11 17:48:31;;;;;;;;;;;0.30;99.90;;;;;;4967830;28;19930;-68
2022/12/11 17:51:02;;;;;;;;;;;0.40;99.90;;;;;;4964530;28;19926;-67
2022/12/11 17:53:30;;;;;;;;;;;0.40;99.90;;;;;;4962125;28;19929;-68
2022/12/11 17:55:59;;;;;;;;;;;0.40;99.90;;;;;;4962710;28;20047;-67
2022/12/11 17:58:26;;;;;;;;;;;0.40;99.90;;;;;;4968537;28;19989;-67
2022/12/11 18:00:55;;;;;;;;;;;0.50;99.90;;;;;;4957245;28;19934;-67
2022/12/11 18:03:22;;;;;;;;;;;0.50;99.90;;;;;;4959351;28;19926;-67
2022/12/11 18:05:50;;;;;;;;;;;0.50;99.90;;;;;;4965109;28;20406;-68
2022/12/11 18:08:18;;;;;;;;;;;0.50;99.90;;;;;;4959720;28;20309;-67
2022/12/11 18:10:47;;;;;;;;;;;0.50;99.90;;;;;;4965539;28;19931;-68
2022/12/11 18:13:14;;;;;;;;;;;0.50;99.90;;;;;;4959827;28;19946;-68
2022/12/11 18:15:41;;;;;;;;;;;0.60;99.90;;;;;;4959899;28;19930;-68
2022/12/11 18:18:08;;;;;;;;;;;0.60;99.90;;;;;;4961711;28;20410;-69
2022/12/11 18:20:36;;;;;;;;;;;0.60;99.90;;;;;;4965050;28;19927;-68
2022/12/11 18:23:03;;;;;;;;;;;0.60;99.90;;;;;;4954671;28;19930;-70
2022/12/11 18:25:30;;;;;;;;;;;0.60;99.90;;;;;;4960884;28;19926;-69
2022/12/11 18:27:59;;;;;;;;;;;0.60;99.90;;;;;;4964301;28;19973;-69
2022/12/11 18:30:25;;;;;;;;;;;0.50;99.90;;;;;;4965422;28;19981;-69
2022/12/11 18:32:52;;;;;;;;;;;0.50;99.90;;;;;;4954824;28;19949;-68
2022/12/11 18:35:19;;;;;;;;;;;0.50;99.90;;;;;;4966692;28;19931;-69
2022/12/11 18:37:46;;;;;;;;;;;0.50;99.90;;;;;;4959891;28;20037;-67
2022/12/11 18:40:12;;;;;;;;;;;0.40;99.90;;;;;;4964565;28;20318;-67
2022/12/11 18:42:41;;;;;;;;;;;0.40;99.90;;;;;;4954196;28;20464;-67